Time;durP1;ratioP1;P1;durP2;ratioP2;P2;SDS_P1;SDS_P2;PMS_P1;PMS_P2;Temp;Humidity;BMP_temperature;BMP_pressure;BME280_temperature;BME280_humidity;BME280_pressure;Samples;Min_cycle;Max_cycle;Signal;HPM_P1;HPM_P2
2023/06/19 00:02:21;;;;;;;0.10;0.10;;;21.90;98.70;;;;;;5008852;28;20374;-70
2023/06/19 00:04:46;;;;;;;0.32;0.25;;;21.90;98.70;;;;;;5023530;28;20560;-70
2023/06/19 00:07:12;;;;;;;0.35;0.20;;;21.90;98.60;;;;;;5011445;28;20045;-70
2023/06/19 00:09:38;;;;;;;0.98;0.65;;;21.90;98.00;;;;;;5010349;28;20037;-68
2023/06/19 00:12:04;;;;;;;0.50;0.45;;;22.00;97.80;;;;;;5011211;28;20041;-69
2023/06/19 00:14:30;;;;;;;0.80;0.52;;;22.00;97.50;;;;;;5006879;28;20038;-69
2023/06/19 00:16:56;;;;;;;0.43;0.40;;;22.10;96.80;;;;;;5010886;28;20045;-67
2023/06/19 00:19:22;;;;;;;0.60;0.43;;;22.10;96.60;;;;;;5008437;28;20046;-69
2023/06/19 00:21:48;;;;;;;0.65;0.40;;;22.20;96.50;;;;;;4995033;28;20095;-68
2023/06/19 00:24:14;;;;;;;0.30;0.30;;;22.20;95.90;;;;;;5007621;28;20156;-70
2023/06/19 00:26:40;;;;;;;0.75;0.45;;;22.20;96.10;;;;;;4994725;28;20442;-69
2023/06/19 00:29:07;;;;;;;0.17;0.17;;;22.20;95.30;;;;;;5013408;28;20053;-69
2023/06/19 00:31:32;;;;;;;0.43;0.30;;;22.30;95.50;;;;;;5013447;28;20048;-69
2023/06/19 00:33:58;;;;;;;0.77;0.50;;;22.30;95.30;;;;;;5014541;28;20401;-69
2023/06/19 00:36:25;;;;;;;0.20;0.20;;;22.30;94.70;;;;;;5014258;28;20141;-68
2023/06/19 00:38:51;;;;;;;0.30;0.20;;;22.30;94.60;;;;;;5015358;28;20506;-68
2023/06/19 00:41:18;;;;;;;0.52;0.40;;;22.40;94.80;;;;;;5015411;28;20072;-68
2023/06/19 00:43:44;;;;;;;0.52;0.30;;;22.30;94.50;;;;;;5011764;28;20045;-69
2023/06/19 00:46:11;;;;;;;0.65;0.38;;;22.30;94.80;;;;;;5010221;28;20046;-69
2023/06/19 00:48:37;;;;;;;0.95;0.55;;;22.30;94.80;;;;;;5012035;28;20068;-70
2023/06/19 00:51:03;;;;;;;0.25;0.25;;;22.30;94.90;;;;;;5014259;28;20439;-68
2023/06/19 00:53:30;;;;;;;0.95;0.65;;;22.30;94.40;;;;;;5011858;28;20128;-69
2023/06/19 00:55:57;;;;;;;0.38;0.30;;;22.30;94.90;;;;;;5015028;28;20132;-69
2023/06/19 00:58:23;;;;;;;1.00;0.57;;;22.30;94.70;;;;;;4998075;28;20115;-70
2023/06/19 01:00:50;;;;;;;0.20;0.15;;;22.20;95.00;;;;;;5013560;28;20543;-69
2023/06/19 01:03:16;;;;;;;0.50;0.25;;;22.20;95.00;;;;;;4997345;28;20095;-69
2023/06/19 01:05:43;;;;;;;0.95;0.63;;;22.20;94.70;;;;;;5010023;28;20046;-70
2023/06/19 01:08:29;;;;;;;0.20;0.10;;;22.20;95.00;;;;;;5013535;28;20505;-69
2023/06/19 01:10:59;;;;;;;0.20;0.10;;;22.10;94.80;;;;;;5029850;28;20261;-70
2023/06/19 01:13:28;;;;;;;0.35;0.13;;;22.10;94.90;;;;;;5011679;28;20077;-68
2023/06/19 01:15:55;;;;;;;0.60;0.20;;;22.10;94.80;;;;;;5031481;28;20041;-69
2023/06/19 01:18:22;;;;;;;0.20;0.20;;;22.20;94.10;;;;;;5013197;28;20474;-69
2023/06/19 01:20:49;;;;;;;0.63;0.57;;;22.20;93.90;;;;;;5029939;28;20453;-69
2023/06/19 01:23:15;;;;;;;0.10;0.10;;;22.20;94.30;;;;;;5012766;28;20044;-70
2023/06/19 01:25:40;;;;;;;1.83;0.25;;;22.30;93.50;;;;;;5012425;28;20041;-69
2023/06/19 01:28:10;;;;;;;0.38;0.30;;;22.30;93.70;;;;;;5013731;28;20148;-69
2023/06/19 01:30:38;;;;;;;0.28;0.17;;;22.30;94.00;;;;;;5012763;28;20466;-69
2023/06/19 01:33:20;;;;;;;0.63;0.28;;;22.40;94.10;;;;;;5014285;28;20077;-69
2023/06/19 01:35:48;;;;;;;0.30;0.30;;;22.40;93.40;;;;;;5011803;28;20405;-69
2023/06/19 01:38:16;;;;;;;0.00;0.00;;;22.40;93.80;;;;;;5012353;28;20129;-69
2023/06/19 01:40:42;;;;;;;0.35;0.28;;;22.30;93.60;;;;;;5010638;28;20445;-69
2023/06/19 01:43:09;;;;;;;0.60;0.25;;;22.40;93.90;;;;;;5012892;28;20049;-69
2023/06/19 01:45:35;;;;;;;1.10;0.50;;;22.30;93.90;;;;;;5029939;28;20037;-69
2023/06/19 01:48:01;;;;;;;0.20;0.20;;;22.40;93.90;;;;;;5009490;28;20085;-70
2023/06/19 01:50:27;;;;;;;0.20;0.10;;;22.30;94.20;;;;;;5011641;28;20517;-69
2023/06/19 01:52:53;;;;;;;0.03;0.03;;;22.30;94.30;;;;;;5013121;28;20136;-70
2023/06/19 01:55:20;;;;;;;0.28;0.10;;;22.30;94.30;;;;;;5013597;28;20577;-69
2023/06/19 01:57:45;;;;;;;0.28;0.17;;;22.30;94.40;;;;;;5012868;28;20054;-69
2023/06/19 02:00:12;;;;;;;2.10;0.70;;;22.30;94.50;;;;;;5011265;28;20045;-70
2023/06/19 02:02:37;;;;;;;0.38;0.15;;;22.30;94.60;;;;;;5011574;28;20057;-68
2023/06/19 02:05:05;;;;;;;0.40;0.20;;;22.30;94.70;;;;;;5025622;28;20053;-69
2023/06/19 02:07:31;;;;;;;0.10;0.10;;;22.20;94.90;;;;;;5011790;28;20053;-69
2023/06/19 02:09:57;;;;;;;0.60;0.30;;;22.20;95.10;;;;;;5009107;28;20070;-70
2023/06/19 02:12:23;;;;;;;0.00;0.00;;;22.20;95.40;;;;;;5013610;28;20058;-69
2023/06/19 02:14:49;;;;;;;0.10;0.00;;;22.10;95.50;;;;;;5007444;28;20053;-70
2023/06/19 02:17:14;;;;;;;0.10;0.00;;;22.10;95.60;;;;;;5011508;28;20466;-69
2023/06/19 02:19:40;;;;;;;0.65;0.43;;;22.10;95.90;;;;;;5026880;28;20076;-69
2023/06/19 02:22:06;;;;;;;0.20;0.10;;;22.00;95.90;;;;;;4996836;28;20579;-69
2023/06/19 02:24:32;;;;;;;0.20;0.17;;;22.00;96.30;;;;;;5010190;28;20405;-70
2023/06/19 02:26:58;;;;;;;0.30;0.10;;;21.90;96.40;;;;;;5009498;28;20053;-69
2023/06/19 02:29:25;;;;;;;0.10;0.10;;;21.90;96.90;;;;;;5008883;28;20045;-69
2023/06/19 02:31:50;;;;;;;0.08;0.08;;;21.80;97.20;;;;;;4996820;28;20437;-70
2023/06/19 02:34:17;;;;;;;0.28;0.10;;;21.80;97.90;;;;;;5008140;28;20045;-69
2023/06/19 02:36:42;;;;;;;0.82;0.45;;;21.80;97.80;;;;;;5009866;28;20073;-69
2023/06/19 02:39:08;;;;;;;0.20;0.10;;;21.80;97.90;;;;;;5010621;28;20552;-69
2023/06/19 02:41:35;;;;;;;0.10;0.08;;;21.70;98.40;;;;;;5008340;28;20129;-69
2023/06/19 02:44:01;;;;;;;0.47;0.35;;;21.70;98.40;;;;;;5029564;28;20139;-69
2023/06/19 02:46:27;;;;;;;1.27;0.32;;;21.70;98.60;;;;;;5011719;28;20124;-69
2023/06/19 02:48:53;;;;;;;0.20;0.10;;;21.60;99.40;;;;;;5011271;28;20125;-70
2023/06/19 02:51:18;;;;;;;0.00;0.00;;;21.60;99.70;;;;;;4993920;28;20116;-69
2023/06/19 02:53:44;;;;;;;0.25;0.10;;;21.60;99.60;;;;;;5009271;28;20045;-69
2023/06/19 02:56:11;;;;;;;0.08;0.05;;;21.60;99.90;;;;;;5008618;28;20621;-69
2023/06/19 02:58:37;;;;;;;0.30;0.20;;;21.60;99.90;;;;;;5010625;28;20435;-70
2023/06/19 03:01:03;;;;;;;0.00;0.00;;;21.60;99.90;;;;;;5009842;28;20113;-70
2023/06/19 03:03:30;;;;;;;0.03;0.00;;;21.60;99.90;;;;;;5011418;28;20057;-70
2023/06/19 03:05:56;;;;;;;0.28;0.20;;;21.60;99.90;;;;;;5026438;28;20145;-70
2023/06/19 03:08:22;;;;;;;0.32;0.15;;;21.60;99.90;;;;;;5012267;28;20509;-70
2023/06/19 03:10:47;;;;;;;0.03;0.03;;;21.60;99.90;;;;;;4995618;28;20056;-70
2023/06/19 03:13:13;;;;;;;0.10;0.10;;;21.50;99.90;;;;;;5011002;28;20048;-70
2023/06/19 03:15:39;;;;;;;0.00;0.00;;;21.60;99.90;;;;;;5011637;28;20519;-70
2023/06/19 03:18:07;;;;;;;0.20;0.13;;;21.50;99.90;;;;;;5009917;28;20038;-70
2023/06/19 03:20:33;;;;;;;0.38;0.35;;;21.50;99.90;;;;;;5010479;28;20492;-69
2023/06/19 03:22:58;;;;;;;0.20;0.10;;;21.50;99.90;;;;;;5012296;28;20140;-70
2023/06/19 03:25:24;;;;;;;0.00;0.00;;;21.40;99.90;;;;;;5028016;28;20068;-70
2023/06/19 03:27:50;;;;;;;0.30;0.10;;;21.40;99.90;;;;;;5028258;28;20045;-70
2023/06/19 03:30:18;;;;;;;0.45;0.10;;;21.40;99.90;;;;;;5008267;28;20045;-70
2023/06/19 03:32:44;;;;;;;0.08;0.08;;;21.40;99.90;;;;;;5012145;28;20038;-70
2023/06/19 03:35:10;;;;;;;0.10;0.08;;;21.40;99.90;;;;;;5005794;28;20038;-69
2023/06/19 03:37:36;;;;;;;0.13;0.10;;;21.40;99.90;;;;;;5008656;28;20037;-69
2023/06/19 03:40:05;;;;;;;0.05;0.05;;;21.30;99.90;;;;;;5011329;28;20045;-69
2023/06/19 03:42:32;;;;;;;0.32;0.25;;;21.30;99.90;;;;;;5008693;28;20485;-69
2023/06/19 03:44:57;;;;;;;0.20;0.10;;;21.30;99.90;;;;;;5005749;28;20052;-69
2023/06/19 03:47:23;;;;;;;0.20;0.20;;;21.30;99.90;;;;;;5010894;28;20278;-70
2023/06/19 03:49:49;;;;;;;0.73;0.20;;;21.20;99.90;;;;;;5008732;28;20041;-69
2023/06/19 03:52:14;;;;;;;0.20;0.10;;;21.10;99.90;;;;;;5012202;28;20042;-69
2023/06/19 03:54:41;;;;;;;0.03;0.03;;;21.10;99.90;;;;;;5027078;28;20535;-69
2023/06/19 03:57:08;;;;;;;0.35;0.28;;;21.10;99.90;;;;;;5009500;28;20038;-69
2023/06/19 03:59:34;;;;;;;0.00;0.00;;;21.00;99.90;;;;;;5008656;28;20038;-69
2023/06/19 04:01:59;;;;;;;0.00;0.00;;;20.90;99.90;;;;;;5007416;28;20142;-69
2023/06/19 04:04:25;;;;;;;0.00;0.00;;;20.90;99.90;;;;;;4993929;28;20042;-70
2023/06/19 04:06:51;;;;;;;0.85;0.30;;;20.80;99.90;;;;;;5010204;28;20052;-70
2023/06/19 04:09:16;;;;;;;0.32;0.00;;;20.70;99.90;;;;;;5010748;28;20037;-69
2023/06/19 04:11:42;;;;;;;0.10;0.00;;;20.70;99.90;;;;;;5008944;28;20041;-70
2023/06/19 04:14:08;;;;;;;0.25;0.17;;;20.70;99.90;;;;;;5028636;28;20105;-70
2023/06/19 04:16:33;;;;;;;0.20;0.10;;;20.60;99.90;;;;;;5010794;28;20096;-70
2023/06/19 04:18:59;;;;;;;0.00;0.00;;;20.60;99.90;;;;;;5009614;28;20107;-70
2023/06/19 04:21:25;;;;;;;0.00;0.00;;;20.60;99.90;;;;;;5008687;28;20076;-70
2023/06/19 04:23:51;;;;;;;0.60;0.03;;;20.50;99.90;;;;;;5008487;28;20176;-70
2023/06/19 04:26:18;;;;;;;0.75;0.20;;;20.60;99.90;;;;;;5007773;28;20125;-70
2023/06/19 04:28:43;;;;;;;0.30;0.22;;;20.50;99.90;;;;;;5009348;28;20041;-70
2023/06/19 04:31:09;;;;;;;0.20;0.20;;;20.50;99.90;;;;;;5026571;28;20045;-70
2023/06/19 04:33:35;;;;;;;0.20;0.20;;;20.50;99.90;;;;;;5010617;28;20148;-70
2023/06/19 04:36:00;;;;;;;0.10;0.00;;;20.50;99.90;;;;;;5027932;28;20080;-70
2023/06/19 04:38:26;;;;;;;0.10;0.10;;;20.40;99.90;;;;;;5010553;28;20041;-70
2023/06/19 04:40:52;;;;;;;0.17;0.10;;;20.40;99.90;;;;;;5005478;28;20079;-69
2023/06/19 04:43:18;;;;;;;0.25;0.15;;;20.40;99.90;;;;;;5010542;28;20040;-69
2023/06/19 04:45:44;;;;;;;0.13;0.10;;;20.50;99.90;;;;;;5007887;28;20065;-69
2023/06/19 04:48:09;;;;;;;0.00;0.00;;;20.50;99.90;;;;;;5011118;28;20224;-70
2023/06/19 04:50:35;;;;;;;0.00;0.00;;;20.50;99.90;;;;;;4992743;28;20037;-69
2023/06/19 04:53:01;;;;;;;0.00;0.00;;;20.50;99.90;;;;;;5011500;28;20536;-69
2023/06/19 04:55:27;;;;;;;0.00;0.00;;;20.60;99.90;;;;;;4991267;28;20076;-70
2023/06/19 04:57:53;;;;;;;0.30;0.10;;;20.60;99.90;;;;;;4990615;28;20061;-70
2023/06/19 05:00:19;;;;;;;0.00;0.00;;;20.70;99.90;;;;;;5008280;28;20045;-70
2023/06/19 05:02:47;;;;;;;0.32;0.22;;;20.80;99.90;;;;;;5009292;28;20068;-70
2023/06/19 05:05:13;;;;;;;0.40;0.00;;;21.00;99.90;;;;;;5007861;28;20065;-69
2023/06/19 05:07:39;;;;;;;0.00;0.00;;;21.20;99.90;;;;;;5010291;28;20045;-70
2023/06/19 05:10:06;;;;;;;0.20;0.20;;;21.40;99.90;;;;;;5006215;28;20052;-69
2023/06/19 05:12:31;;;;;;;0.28;0.10;;;21.50;99.90;;;;;;5007793;28;20050;-70
2023/06/19 05:14:57;;;;;;;0.43;0.20;;;21.50;99.90;;;;;;5006773;28;20042;-70
2023/06/19 05:17:23;;;;;;;0.00;0.00;;;21.40;99.90;;;;;;5010995;28;20163;-70
2023/06/19 05:19:49;;;;;;;0.00;0.00;;;21.40;99.90;;;;;;5010354;28;20050;-71
2023/06/19 05:22:15;;;;;;;0.55;0.25;;;21.40;99.90;;;;;;5013273;28;20041;-71
2023/06/19 05:24:41;;;;;;;0.00;0.00;;;21.40;99.90;;;;;;5012532;28;20391;-71
2023/06/19 05:27:06;;;;;;;0.00;0.00;;;21.40;99.90;;;;;;5011120;28;20041;-70
2023/06/19 05:29:32;;;;;;;0.03;0.03;;;21.40;99.90;;;;;;4990476;28;20539;-70
2023/06/19 05:31:58;;;;;;;0.80;0.47;;;21.40;99.90;;;;;;5012844;28;20263;-71
2023/06/19 05:34:24;;;;;;;0.00;0.00;;;21.40;99.90;;;;;;5011380;28;20045;-71
2023/06/19 05:36:49;;;;;;;0.13;0.10;;;21.40;99.90;;;;;;5012781;28;20041;-71
2023/06/19 05:39:15;;;;;;;0.00;0.00;;;21.30;99.90;;;;;;5011811;28;20128;-71
2023/06/19 05:41:41;;;;;;;0.35;0.03;;;21.20;99.90;;;;;;5011842;28;20511;-71
2023/06/19 05:44:07;;;;;;;0.10;0.10;;;21.20;99.90;;;;;;4988795;28;20405;-72
2023/06/19 05:46:32;;;;;;;0.00;0.00;;;21.20;99.90;;;;;;5009031;28;20041;-71
2023/06/19 05:48:58;;;;;;;0.00;0.00;;;21.20;99.90;;;;;;5025869;28;20176;-72
2023/06/19 05:51:24;;;;;;;0.03;0.03;;;21.20;99.90;;;;;;5010439;28;20550;-71
2023/06/19 05:53:49;;;;;;;0.00;0.00;;;21.20;99.90;;;;;;5009698;28;20046;-71
2023/06/19 05:56:16;;;;;;;0.08;0.00;;;21.30;99.90;;;;;;5010862;28;20048;-71
2023/06/19 05:58:41;;;;;;;1.23;0.43;;;21.40;99.90;;;;;;5008056;28;20044;-72
2023/06/19 06:01:07;;;;;;;0.00;0.00;;;21.50;99.90;;;;;;5011206;28;20037;-72
2023/06/19 06:03:33;;;;;;;0.00;0.00;;;21.40;99.90;;;;;;5011767;28;20378;-72
2023/06/19 06:06:02;;;;;;;0.00;0.00;;;21.60;99.90;;;;;;5007821;28;20046;-71
2023/06/19 06:08:29;;;;;;;0.63;0.13;;;21.50;99.90;;;;;;4993613;28;20101;-71
2023/06/19 06:10:55;;;;;;;0.03;0.03;;;21.50;99.90;;;;;;5011747;28;20152;-72
2023/06/19 06:13:21;;;;;;;0.00;0.00;;;21.50;99.90;;;;;;5011570;28;20064;-71
2023/06/19 06:15:46;;;;;;;0.65;0.20;;;21.50;99.90;;;;;;4996266;28;20112;-71
2023/06/19 06:18:12;;;;;;;0.00;0.00;;;21.40;99.90;;;;;;5006009;28;20041;-72
2023/06/19 06:20:38;;;;;;;0.00;0.00;;;21.40;99.90;;;;;;5011051;28;20100;-72
2023/06/19 06:23:04;;;;;;;0.00;0.00;;;21.40;99.90;;;;;;5010225;28;20037;-71
2023/06/19 06:25:29;;;;;;;0.00;0.00;;;21.30;99.90;;;;;;5007882;28;20168;-72
2023/06/19 06:27:55;;;;;;;0.10;0.10;;;21.30;99.90;;;;;;5011582;28;20591;-71
2023/06/19 06:30:22;;;;;;;0.10;0.03;;;21.20;99.90;;;;;;5010851;28;20132;-71
2023/06/19 06:32:48;;;;;;;0.10;0.10;;;21.10;99.90;;;;;;5011231;28;20096;-71
2023/06/19 06:35:14;;;;;;;0.20;0.15;;;21.20;99.90;;;;;;5006503;28;20072;-72
2023/06/19 06:37:40;;;;;;;0.00;0.00;;;21.20;99.90;;;;;;5007753;28;20038;-71
2023/06/19 06:40:10;;;;;;;0.13;0.13;;;21.20;99.90;;;;;;5007084;28;20065;-71
2023/06/19 06:42:37;;;;;;;0.00;0.00;;;21.10;99.90;;;;;;5010262;28;20067;-72
2023/06/19 06:45:07;;;;;;;0.03;0.03;;;21.10;99.90;;;;;;5006692;28;20585;-72
2023/06/19 06:47:34;;;;;;;0.30;0.17;;;21.00;99.90;;;;;;5006560;28;20120;-72
2023/06/19 06:49:59;;;;;;;0.40;0.25;;;21.00;99.90;;;;;;5008267;28;20486;-71
2023/06/19 06:52:25;;;;;;;0.52;0.20;;;20.90;99.90;;;;;;5028488;28;20037;-71
2023/06/19 06:54:51;;;;;;;0.15;0.10;;;21.00;99.90;;;;;;5008854;28;20044;-71
2023/06/19 06:57:17;;;;;;;0.35;0.30;;;20.90;99.90;;;;;;5024888;28;20061;-71
2023/06/19 06:59:42;;;;;;;0.32;0.30;;;21.00;99.90;;;;;;4994273;28;20042;-71
2023/06/19 07:02:08;;;;;;;0.20;0.10;;;21.00;99.90;;;;;;5011608;28;20042;-72
2023/06/19 07:04:34;;;;;;;0.10;0.05;;;21.00;99.90;;;;;;5009347;28;20079;-71
2023/06/19 07:07:00;;;;;;;0.47;0.17;;;21.00;99.90;;;;;;5007676;28;20052;-71
2023/06/19 07:09:25;;;;;;;0.68;0.32;;;21.10;99.90;;;;;;5010655;28;20116;-71
2023/06/19 07:11:51;;;;;;;0.15;0.10;;;21.10;99.90;;;;;;5009047;28;20049;-71
2023/06/19 07:14:19;;;;;;;0.47;0.25;;;21.10;99.90;;;;;;5011615;28;20037;-71
2023/06/19 07:16:46;;;;;;;0.08;0.03;;;21.20;99.90;;;;;;5008446;28;20053;-72
2023/06/19 07:19:12;;;;;;;0.13;0.10;;;21.20;99.90;;;;;;5007547;28;20041;-71
2023/06/19 07:21:38;;;;;;;0.17;0.15;;;21.10;99.90;;;;;;5007107;28;20153;-71
2023/06/19 07:24:05;;;;;;;0.10;0.05;;;21.20;99.90;;;;;;5027978;28;20112;-71
2023/06/19 07:26:31;;;;;;;0.20;0.10;;;21.20;99.90;;;;;;5007600;28;20041;-71
2023/06/19 07:28:56;;;;;;;0.00;0.00;;;21.20;99.90;;;;;;5010433;28;20071;-72
2023/06/19 07:31:23;;;;;;;0.00;0.00;;;21.20;99.90;;;;;;5007979;28;20083;-72
2023/06/19 07:33:48;;;;;;;0.08;0.03;;;21.20;99.90;;;;;;5008297;28;20049;-71
2023/06/19 07:36:15;;;;;;;0.03;0.03;;;21.20;99.90;;;;;;5009953;28;20073;-71
2023/06/19 07:38:45;;;;;;;0.00;0.00;;;21.10;99.90;;;;;;5010854;28;20549;-72
2023/06/19 07:41:11;;;;;;;0.00;0.00;;;21.10;99.90;;;;;;5010570;28;20043;-71
2023/06/19 07:43:38;;;;;;;0.00;0.00;;;21.10;99.90;;;;;;5007432;28;20112;-72
2023/06/19 07:46:04;;;;;;;0.70;0.22;;;21.00;99.90;;;;;;5005841;28;20042;-71
2023/06/19 07:48:30;;;;;;;0.35;0.20;;;21.00;99.90;;;;;;5011180;28;20052;-70
2023/06/19 07:50:55;;;;;;;0.20;0.10;;;21.00;99.90;;;;;;5007458;28;20438;-72
2023/06/19 07:53:21;;;;;;;0.00;0.00;;;21.00;99.90;;;;;;5001030;28;20041;-70
2023/06/19 07:55:47;;;;;;;0.00;0.00;;;21.00;99.90;;;;;;5010739;28;20108;-72
2023/06/19 07:58:13;;;;;;;0.20;0.13;;;21.00;99.90;;;;;;5011217;28;20521;-70
2023/06/19 08:00:39;;;;;;;0.08;0.08;;;21.00;99.90;;;;;;5009849;28;20038;-70
2023/06/19 08:03:05;;;;;;;0.00;0.00;;;21.10;99.90;;;;;;5006096;28;20385;-71
2023/06/19 08:05:31;;;;;;;0.00;0.00;;;21.20;99.90;;;;;;4990174;28;20064;-71
2023/06/19 08:07:58;;;;;;;0.10;0.10;;;21.30;99.90;;;;;;5009317;28;20053;-70
2023/06/19 08:10:24;;;;;;;0.00;0.00;;;21.30;99.90;;;;;;5011209;28;20516;-70
2023/06/19 08:12:49;;;;;;;0.20;0.15;;;21.50;99.90;;;;;;5008302;28;20045;-71
2023/06/19 08:15:15;;;;;;;0.20;0.10;;;21.50;99.90;;;;;;5010127;28;20076;-71
2023/06/19 08:17:42;;;;;;;0.22;0.20;;;21.60;99.90;;;;;;5005864;28;20068;-70
2023/06/19 08:20:09;;;;;;;0.22;0.15;;;21.70;99.90;;;;;;5008987;28;20042;-70
2023/06/19 08:22:35;;;;;;;0.08;0.03;;;21.70;99.90;;;;;;5008029;28;20038;-71
2023/06/19 08:25:02;;;;;;;0.45;0.45;;;21.80;99.90;;;;;;5009015;28;20049;-71
2023/06/19 08:27:27;;;;;;;0.32;0.15;;;21.80;99.90;;;;;;4993454;28;20042;-71
2023/06/19 08:29:53;;;;;;;0.10;0.10;;;21.80;99.90;;;;;;4994358;28;20045;-70
2023/06/19 08:32:19;;;;;;;0.10;0.08;;;21.70;99.90;;;;;;5011173;28;20072;-71
2023/06/19 08:34:45;;;;;;;0.57;0.30;;;21.60;99.90;;;;;;5011524;28;20140;-71
2023/06/19 08:37:11;;;;;;;0.10;0.10;;;21.60;99.90;;;;;;5007037;28;20520;-71
2023/06/19 08:39:38;;;;;;;0.20;0.20;;;21.50;99.90;;;;;;5011929;28;20033;-71
2023/06/19 08:42:08;;;;;;;0.10;0.10;;;21.50;99.90;;;;;;4995418;28;20069;-71
2023/06/19 08:44:36;;;;;;;0.30;0.05;;;21.50;99.90;;;;;;5011592;28;20040;-71
2023/06/19 08:47:04;;;;;;;0.25;0.17;;;21.40;99.90;;;;;;5008677;28;20053;-70
2023/06/19 08:49:33;;;;;;;0.20;0.10;;;21.40;99.90;;;;;;5027872;28;20037;-70
2023/06/19 08:51:59;;;;;;;0.05;0.05;;;21.40;99.90;;;;;;5013576;28;20041;-71
2023/06/19 08:54:25;;;;;;;0.20;0.17;;;21.30;99.90;;;;;;5013477;28;20056;-71
2023/06/19 08:56:53;;;;;;;0.20;0.00;;;21.30;99.90;;;;;;5013961;28;20060;-71
2023/06/19 08:59:19;;;;;;;0.15;0.15;;;21.40;99.90;;;;;;5015076;28;20048;-71
2023/06/19 09:01:54;;;;;;;0.08;0.08;;;21.40;99.90;;;;;;5015055;28;20041;-71
2023/06/19 09:04:23;;;;;;;0.17;0.00;;;21.40;99.90;;;;;;5014489;28;20515;-71
2023/06/19 09:06:54;;;;;;;0.73;0.45;;;21.60;99.90;;;;;;5014963;28;20053;-71
2023/06/19 09:09:21;;;;;;;0.10;0.10;;;21.70;99.90;;;;;;5013947;28;20139;-71
2023/06/19 09:12:08;;;;;;;0.52;0.45;;;21.80;99.90;;;;;;5013482;28;20050;-70
2023/06/19 09:14:35;;;;;;;0.22;0.10;;;21.90;99.90;;;;;;5006788;28;20041;-71
2023/06/19 09:17:05;;;;;;;1.35;0.25;;;22.00;99.90;;;;;;5009371;28;20053;-70
2023/06/19 09:19:31;;;;;;;0.32;0.32;;;22.00;99.90;;;;;;5007945;28;20052;-71
2023/06/19 09:22:06;;;;;;;0.35;0.20;;;22.00;99.90;;;;;;4997685;28;20041;-71
2023/06/19 09:24:39;;;;;;;0.57;0.43;;;21.90;99.90;;;;;;5009562;28;20286;-71
2023/06/19 09:27:13;;;;;;;0.10;0.10;;;21.90;99.90;;;;;;5009818;28;20045;-71
2023/06/19 09:29:41;;;;;;;0.00;0.00;;;21.90;99.90;;;;;;5008058;28;20052;-71
2023/06/19 09:32:20;;;;;;;0.38;0.38;;;21.90;99.90;;;;;;5009667;28;20041;-70
2023/06/19 09:34:47;;;;;;;0.40;0.20;;;21.90;99.90;;;;;;4991792;28;20049;-71
2023/06/19 09:37:13;;;;;;;0.13;0.10;;;21.90;99.90;;;;;;4994047;28;20579;-71
2023/06/19 09:39:40;;;;;;;0.38;0.20;;;21.90;99.90;;;;;;5009278;28;20029;-71
2023/06/19 09:42:09;;;;;;;1.42;0.32;;;22.00;99.90;;;;;;5012142;28;20038;-72
2023/06/19 09:44:41;;;;;;;0.30;0.05;;;22.10;99.90;;;;;;5012214;28;20037;-72
2023/06/19 09:47:24;;;;;;;0.30;0.25;;;22.30;99.90;;;;;;5008094;28;20042;-71
2023/06/19 09:49:54;;;;;;;0.00;0.00;;;22.30;99.90;;;;;;5023530;28;20049;-71
2023/06/19 09:52:24;;;;;;;0.30;0.30;;;22.30;99.90;;;;;;5008970;28;20067;-71
2023/06/19 09:54:54;;;;;;;0.55;0.30;;;22.20;99.90;;;;;;5009906;28;20052;-71
2023/06/19 09:57:21;;;;;;;0.73;0.40;;;22.20;99.90;;;;;;5011829;28;20044;-71
2023/06/19 09:59:49;;;;;;;0.20;0.10;;;22.10;99.90;;;;;;5010102;28;20044;-70
2023/06/19 10:02:17;;;;;;;0.13;0.10;;;22.10;99.90;;;;;;5008347;28;20148;-70
2023/06/19 10:04:51;;;;;;;0.40;0.30;;;21.90;99.90;;;;;;5010955;28;20601;-70
2023/06/19 10:07:18;;;;;;;;;;;21.80;99.90;;;;;;5027659;28;20045;-70
2023/06/19 10:09:56;;;;;;;0.38;0.30;;;21.70;99.90;;;;;;5005521;28;19975;-71
2023/06/19 10:12:22;;;;;;;0.43;0.32;;;21.80;99.90;;;;;;5016599;28;20049;-71
2023/06/19 10:14:50;;;;;;;0.28;0.20;;;22.00;99.90;;;;;;5011633;28;20037;-71
2023/06/19 10:17:17;;;;;;;0.10;0.10;;;22.30;99.90;;;;;;5013090;28;20448;-71
2023/06/19 10:19:50;;;;;;;3.20;1.08;;;22.40;99.90;;;;;;5009939;28;20113;-71
2023/06/19 10:22:22;;;;;;;1.25;0.52;;;22.40;99.90;;;;;;5012935;28;20112;-71
2023/06/19 10:24:51;;;;;;;0.22;0.20;;;22.40;99.90;;;;;;5010792;28;20107;-71
2023/06/19 10:27:25;;;;;;;1.98;0.45;;;22.50;99.90;;;;;;5011012;28;20103;-71
2023/06/19 10:29:57;;;;;;;0.20;0.10;;;22.70;99.90;;;;;;5010495;28;20049;-71
2023/06/19 10:32:23;;;;;;;0.10;0.10;;;22.90;99.90;;;;;;5012762;28;20045;-71
2023/06/19 10:34:49;;;;;;;1.48;0.15;;;23.10;99.90;;;;;;5008119;28;20052;-71
2023/06/19 10:37:17;;;;;;;0.10;0.10;;;23.10;99.90;;;;;;5030471;28;20042;-71
2023/06/19 10:39:43;;;;;;;0.20;0.10;;;23.20;99.90;;;;;;5007022;28;20037;-71
2023/06/19 10:42:10;;;;;;;0.20;0.00;;;23.20;99.90;;;;;;4995837;28;20147;-71
2023/06/19 10:44:41;;;;;;;0.32;0.28;;;23.20;99.90;;;;;;5005945;28;20069;-71
2023/06/19 10:47:07;;;;;;;0.38;0.30;;;23.10;99.90;;;;;;5013045;28;20045;-71
2023/06/19 10:49:33;;;;;;;0.15;0.15;;;23.00;99.90;;;;;;5011250;28;20471;-71
2023/06/19 10:52:00;;;;;;;0.20;0.17;;;23.10;99.90;;;;;;5008190;28;20128;-71
2023/06/19 10:54:27;;;;;;;0.32;0.10;;;23.20;99.90;;;;;;5022471;28;20361;-76
2023/06/19 10:56:54;;;;;;;1.42;0.80;;;23.20;99.90;;;;;;4994865;28;20501;-78
2023/06/19 10:59:20;;;;;;;0.38;0.32;;;23.30;99.90;;;;;;5007324;28;20037;-79
2023/06/19 11:01:47;;;;;;;0.75;0.10;;;23.30;99.90;;;;;;4992685;28;20045;-78
2023/06/19 11:04:15;;;;;;;0.40;0.20;;;23.40;99.90;;;;;;5009698;28;20093;-78
2023/06/19 11:06:43;;;;;;;0.03;0.03;;;23.40;99.90;;;;;;5005211;28;20742;-77
2023/06/19 11:09:10;;;;;;;0.60;0.47;;;23.60;99.90;;;;;;4992331;28;20247;-78
2023/06/19 11:11:39;;;;;;;0.30;0.20;;;23.90;99.90;;;;;;4987993;28;20041;-78
2023/06/19 11:14:05;;;;;;;0.35;0.20;;;24.30;99.90;;;;;;5008913;28;20135;-78
2023/06/19 11:16:32;;;;;;;0.50;0.30;;;24.50;99.90;;;;;;5009626;28;20636;-79
2023/06/19 11:18:58;;;;;;;0.30;0.20;;;24.60;99.90;;;;;;5007178;28;20477;-78
2023/06/19 11:21:38;;;;;;;3.00;0.45;;;24.60;99.90;;;;;;5012287;28;20209;-78
2023/06/19 11:24:05;;;;;;;0.10;0.10;;;24.70;99.90;;;;;;5005734;28;20044;-78
2023/06/19 11:26:38;;;;;;;0.22;0.20;;;24.60;99.90;;;;;;4996102;28;20038;-78
2023/06/19 11:29:15;;;;;;;0.25;0.25;;;24.50;99.90;;;;;;5005971;28;20056;-73
2023/06/19 11:31:41;;;;;;;0.25;0.17;;;24.40;99.90;;;;;;5004889;28;20642;-73
2023/06/19 11:34:06;;;;;;;0.20;0.17;;;24.30;99.90;;;;;;5009970;28;20041;-73
2023/06/19 11:36:32;;;;;;;0.20;0.20;;;24.10;99.90;;;;;;5010687;28;20468;-73
2023/06/19 11:38:58;;;;;;;0.38;0.20;;;24.10;99.90;;;;;;5008420;28;20048;-72
2023/06/19 11:41:28;;;;;;;0.15;0.05;;;23.90;99.90;;;;;;5011473;28;20153;-72
2023/06/19 11:44:02;;;;;;;0.47;0.22;;;23.90;99.90;;;;;;5008956;28;20045;-72
2023/06/19 11:46:32;;;;;;;0.20;0.13;;;23.80;99.90;;;;;;5010365;28;20505;-73
2023/06/19 11:49:09;;;;;;;0.32;0.32;;;23.80;99.90;;;;;;5005310;28;20042;-72
2023/06/19 11:51:35;;;;;;;0.00;0.00;;;24.00;99.90;;;;;;4990757;28;20075;-72
2023/06/19 11:54:01;;;;;;;0.00;0.00;;;24.30;99.90;;;;;;5007753;28;20501;-72
2023/06/19 11:56:27;;;;;;;0.30;0.28;;;24.60;99.90;;;;;;5010077;28;20068;-73
2023/06/19 11:58:52;;;;;;;0.08;0.08;;;24.90;99.90;;;;;;5004405;28;20029;-72
2023/06/19 12:01:18;;;;;;;0.20;0.20;;;24.80;99.90;;;;;;5007381;28;20037;-72
2023/06/19 12:03:44;;;;;;;0.47;0.32;;;24.90;99.90;;;;;;5007953;28;20477;-72
2023/06/19 12:06:10;;;;;;;0.20;0.10;;;25.20;99.90;;;;;;5008690;28;20040;-71
2023/06/19 12:08:37;;;;;;;0.17;0.05;;;25.50;99.90;;;;;;4991028;28;20033;-72
2023/06/19 12:11:07;;;;;;;0.73;0.35;;;25.70;99.90;;;;;;4994913;28;20553;-72
2023/06/19 12:13:33;;;;;;;0.10;0.10;;;25.70;99.90;;;;;;5010592;28;20037;-73
2023/06/19 12:15:59;;;;;;;0.17;0.08;;;25.70;99.90;;;;;;5010146;28;20609;-72
2023/06/19 12:18:25;;;;;;;0.57;0.30;;;25.80;99.90;;;;;;5007073;28;20041;-72
2023/06/19 12:20:50;;;;;;;0.65;0.20;;;25.80;99.90;;;;;;5008486;28;20269;-72
2023/06/19 12:23:16;;;;;;;0.10;0.10;;;25.60;99.90;;;;;;5008818;28;20104;-72
2023/06/19 12:25:42;;;;;;;0.30;0.20;;;25.50;99.90;;;;;;5024425;28;20099;-73
2023/06/19 12:28:08;;;;;;;0.17;0.10;;;25.30;99.90;;;;;;5007255;28;20073;-73
2023/06/19 12:30:36;;;;;;;4.03;0.10;;;25.10;99.90;;;;;;4993797;28;20037;-72
2023/06/19 12:33:04;;;;;;;0.68;0.40;;;24.90;99.90;;;;;;5007393;28;20041;-73
2023/06/19 12:35:30;;;;;;;1.05;0.35;;;24.90;99.90;;;;;;5008623;28;20041;-73
2023/06/19 12:37:55;;;;;;;0.10;0.10;;;25.00;99.90;;;;;;5011132;28;20377;-73
2023/06/19 12:40:21;;;;;;;1.70;0.28;;;25.10;99.90;;;;;;5008457;28;20037;-73
2023/06/19 12:42:49;;;;;;;1.63;0.60;;;25.20;99.90;;;;;;5011169;28;20129;-72
2023/06/19 12:45:15;;;;;;;0.30;0.30;;;25.20;99.90;;;;;;5006586;28;20041;-72
2023/06/19 12:47:40;;;;;;;0.45;0.30;;;25.00;99.90;;;;;;5007147;28;20048;-72